sensor_id;sensor_type;location;lat;lon;timestamp;P1;durP1;ratioP1;P2;durP2;ratioP2
31760;SDS011;18335;51.486;7.562;2023-02-28T00:00:08;10.25;;;4.47;;
31760;SDS011;18335;51.486;7.562;2023-02-28T00:02:37;10.95;;;3.97;;
31760;SDS011;18335;51.486;7.562;2023-02-28T00:05:04;11.63;;;4.07;;
31760;SDS011;18335;51.486;7.562;2023-02-28T00:07:33;10.77;;;3.92;;
31760;SDS011;18335;51.486;7.562;2023-02-28T00:10:00;9.05;;;3.63;;
31760;SDS011;18335;51.486;7.562;2023-02-28T00:12:27;11.20;;;3.50;;
31760;SDS011;18335;51.486;7.562;2023-02-28T00:14:54;11.23;;;4.05;;
31760;SDS011;18335;51.486;7.562;2023-02-28T00:17:22;9.75;;;3.88;;
31760;SDS011;18335;51.486;7.562;2023-02-28T00:19:49;10.38;;;3.63;;
31760;SDS011;18335;51.486;7.562;2023-02-28T00:22:17;15.05;;;3.80;;
31760;SDS011;18335;51.486;7.562;2023-02-28T00:24:45;11.20;;;3.75;;
31760;SDS011;18335;51.486;7.562;2023-02-28T00:27:12;10.32;;;3.88;;
31760;SDS011;18335;51.486;7.562;2023-02-28T00:29:39;9.38;;;3.47;;
31760;SDS011;18335;51.486;7.562;2023-02-28T00:32:06;10.50;;;3.58;;
31760;SDS011;18335;51.486;7.562;2023-02-28T00:34:34;10.23;;;3.65;;
31760;SDS011;18335;51.486;7.562;2023-02-28T00:37:03;11.95;;;4.43;;
31760;SDS011;18335;51.486;7.562;2023-02-28T00:39:33;11.73;;;3.75;;
31760;SDS011;18335;51.486;7.562;2023-02-28T00:42:00;9.73;;;4.15;;
31760;SDS011;18335;51.486;7.562;2023-02-28T00:44:28;7.95;;;3.42;;
31760;SDS011;18335;51.486;7.562;2023-02-28T00:46:54;9.40;;;3.97;;
31760;SDS011;18335;51.486;7.562;2023-02-28T00:49:23;9.68;;;3.90;;
31760;SDS011;18335;51.486;7.562;2023-02-28T00:51:52;9.57;;;3.88;;
31760;SDS011;18335;51.486;7.562;2023-02-28T00:54:19;12.18;;;3.30;;
31760;SDS011;18335;51.486;7.562;2023-02-28T00:56:46;11.52;;;3.60;;
31760;SDS011;18335;51.486;7.562;2023-02-28T00:59:13;10.43;;;3.80;;
31760;SDS011;18335;51.486;7.562;2023-02-28T01:01:41;8.60;;;3.17;;
31760;SDS011;18335;51.486;7.562;2023-02-28T01:04:08;9.90;;;3.45;;
31760;SDS011;18335;51.486;7.562;2023-02-28T01:06:35;9.70;;;3.90;;
31760;SDS011;18335;51.486;7.562;2023-02-28T01:09:03;7.47;;;3.53;;
31760;SDS011;18335;51.486;7.562;2023-02-28T01:11:31;10.98;;;3.63;;
31760;SDS011;18335;51.486;7.562;2023-02-28T01:13:59;9.68;;;3.72;;
31760;SDS011;18335;51.486;7.562;2023-02-28T01:16:26;10.70;;;3.83;;
31760;SDS011;18335;51.486;7.562;2023-02-28T01:18:53;9.10;;;3.72;;
31760;SDS011;18335;51.486;7.562;2023-02-28T01:21:20;10.73;;;3.75;;
31760;SDS011;18335;51.486;7.562;2023-02-28T01:23:48;8.90;;;3.53;;
31760;SDS011;18335;51.486;7.562;2023-02-28T01:26:17;8.02;;;3.15;;
31760;SDS011;18335;51.486;7.562;2023-02-28T01:28:45;15.65;;;5.88;;
31760;SDS011;18335;51.486;7.562;2023-02-28T01:31:12;8.57;;;3.55;;
31760;SDS011;18335;51.486;7.562;2023-02-28T01:33:40;10.77;;;4.47;;
31760;SDS011;18335;51.486;7.562;2023-02-28T01:36:08;9.27;;;4.07;;
31760;SDS011;18335;51.486;7.562;2023-02-28T01:38:36;9.45;;;3.78;;
31760;SDS011;18335;51.486;7.562;2023-02-28T01:41:04;8.80;;;3.45;;
31760;SDS011;18335;51.486;7.562;2023-02-28T01:43:52;12.60;;;3.60;;
31760;SDS011;18335;51.486;7.562;2023-02-28T01:46:21;8.15;;;3.60;;
31760;SDS011;18335;51.486;7.562;2023-02-28T01:48:50;9.90;;;3.40;;
31760;SDS011;18335;51.486;7.562;2023-02-28T01:51:21;9.35;;;3.75;;
31760;SDS011;18335;51.486;7.562;2023-02-28T01:53:54;7.28;;;3.13;;
31760;SDS011;18335;51.486;7.562;2023-02-28T01:56:23;9.88;;;3.78;;
31760;SDS011;18335;51.486;7.562;2023-02-28T01:58:54;8.77;;;3.70;;
31760;SDS011;18335;51.486;7.562;2023-02-28T02:01:22;7.65;;;3.08;;
31760;SDS011;18335;51.486;7.562;2023-02-28T02:03:52;8.77;;;3.20;;
31760;SDS011;18335;51.486;7.562;2023-02-28T02:06:21;8.43;;;4.00;;
31760;SDS011;18335;51.486;7.562;2023-02-28T02:08:48;10.63;;;3.72;;
31760;SDS011;18335;51.486;7.562;2023-02-28T02:11:17;8.32;;;3.30;;
31760;SDS011;18335;51.486;7.562;2023-02-28T02:14:01;7.45;;;3.17;;
31760;SDS011;18335;51.486;7.562;2023-02-28T02:16:47;9.20;;;3.30;;
31760;SDS011;18335;51.486;7.562;2023-02-28T02:22:38;7.95;;;3.63;;
31760;SDS011;18335;51.486;7.562;2023-02-28T02:25:27;7.32;;;2.80;;
31760;SDS011;18335;51.486;7.562;2023-02-28T02:28:03;8.45;;;2.90;;
31760;SDS011;18335;51.486;7.562;2023-02-28T02:36:59;10.57;;;4.05;;
31760;SDS011;18335;51.486;7.562;2023-02-28T02:39:36;11.48;;;4.32;;
31760;SDS011;18335;51.486;7.562;2023-02-28T02:42:14;9.88;;;3.40;;
31760;SDS011;18335;51.486;7.562;2023-02-28T02:44:45;8.48;;;3.85;;
31760;SDS011;18335;51.486;7.562;2023-02-28T02:47:19;13.55;;;4.28;;
31760;SDS011;18335;51.486;7.562;2023-02-28T02:49:51;9.13;;;3.50;;
31760;SDS011;18335;51.486;7.562;2023-02-28T02:52:23;10.63;;;3.95;;
31760;SDS011;18335;51.486;7.562;2023-02-28T02:54:56;11.35;;;3.90;;
31760;SDS011;18335;51.486;7.562;2023-02-28T02:57:26;10.38;;;4.55;;
31760;SDS011;18335;51.486;7.562;2023-02-28T02:59:59;10.90;;;4.65;;
31760;SDS011;18335;51.486;7.562;2023-02-28T03:02:28;10.45;;;3.88;;
31760;SDS011;18335;51.486;7.562;2023-02-28T03:05:01;8.55;;;3.85;;
31760;SDS011;18335;51.486;7.562;2023-02-28T03:07:31;8.95;;;3.70;;
31760;SDS011;18335;51.486;7.562;2023-02-28T03:09:57;9.35;;;3.80;;
31760;SDS011;18335;51.486;7.562;2023-02-28T03:12:27;9.30;;;4.68;;
31760;SDS011;18335;51.486;7.562;2023-02-28T03:15:07;7.05;;;3.20;;
31760;SDS011;18335;51.486;7.562;2023-02-28T03:17:52;10.25;;;3.63;;
31760;SDS011;18335;51.486;7.562;2023-02-28T03:20:33;13.45;;;3.95;;
31760;SDS011;18335;51.486;7.562;2023-02-28T03:23:09;10.30;;;4.10;;
31760;SDS011;18335;51.486;7.562;2023-02-28T03:25:45;7.28;;;3.20;;
31760;SDS011;18335;51.486;7.562;2023-02-28T03:28:22;10.85;;;4.22;;
31760;SDS011;18335;51.486;7.562;2023-02-28T03:30:59;10.40;;;4.57;;
31760;SDS011;18335;51.486;7.562;2023-02-28T03:33:32;7.90;;;3.55;;
31760;SDS011;18335;51.486;7.562;2023-02-28T03:36:03;12.20;;;3.75;;
31760;SDS011;18335;51.486;7.562;2023-02-28T03:38:35;11.48;;;3.90;;
31760;SDS011;18335;51.486;7.562;2023-02-28T03:41:09;9.23;;;2.92;;
31760;SDS011;18335;51.486;7.562;2023-02-28T03:43:42;9.05;;;3.47;;
31760;SDS011;18335;51.486;7.562;2023-02-28T03:46:12;9.13;;;3.45;;
31760;SDS011;18335;51.486;7.562;2023-02-28T03:48:47;5.97;;;2.10;;
31760;SDS011;18335;51.486;7.562;2023-02-28T03:51:19;9.18;;;3.28;;
31760;SDS011;18335;51.486;7.562;2023-02-28T03:53:50;9.45;;;3.38;;
31760;SDS011;18335;51.486;7.562;2023-02-28T03:56:20;8.77;;;2.92;;
31760;SDS011;18335;51.486;7.562;2023-02-28T03:58:51;10.32;;;4.20;;
31760;SDS011;18335;51.486;7.562;2023-02-28T04:01:23;6.38;;;3.15;;
31760;SDS011;18335;51.486;7.562;2023-02-28T04:03:53;11.32;;;3.10;;
31760;SDS011;18335;51.486;7.562;2023-02-28T04:06:22;9.25;;;3.35;;
31760;SDS011;18335;51.486;7.562;2023-02-28T04:08:50;10.73;;;3.65;;
31760;SDS011;18335;51.486;7.562;2023-02-28T04:11:20;11.00;;;3.40;;
31760;SDS011;18335;51.486;7.562;2023-02-28T04:13:49;11.57;;;2.88;;
31760;SDS011;18335;51.486;7.562;2023-02-28T04:16:17;8.63;;;3.15;;
31760;SDS011;18335;51.486;7.562;2023-02-28T04:18:44;10.07;;;3.70;;
31760;SDS011;18335;51.486;7.562;2023-02-28T04:21:11;12.88;;;3.83;;
31760;SDS011;18335;51.486;7.562;2023-02-28T04:23:40;9.63;;;4.10;;
31760;SDS011;18335;51.486;7.562;2023-02-28T04:26:06;7.90;;;3.45;;
31760;SDS011;18335;51.486;7.562;2023-02-28T04:28:33;10.93;;;4.47;;
31760;SDS011;18335;51.486;7.562;2023-02-28T04:31:01;11.80;;;4.15;;
31760;SDS011;18335;51.486;7.562;2023-02-28T04:33:29;9.82;;;3.80;;
31760;SDS011;18335;51.486;7.562;2023-02-28T04:36:00;10.25;;;3.58;;
31760;SDS011;18335;51.486;7.562;2023-02-28T04:38:28;9.38;;;3.40;;
31760;SDS011;18335;51.486;7.562;2023-02-28T04:40:58;7.82;;;3.20;;
31760;SDS011;18335;51.486;7.562;2023-02-28T04:43:25;9.38;;;3.65;;
31760;SDS011;18335;51.486;7.562;2023-02-28T04:45:53;9.05;;;3.22;;
31760;SDS011;18335;51.486;7.562;2023-02-28T04:48:22;9.32;;;3.35;;
31760;SDS011;18335;51.486;7.562;2023-02-28T04:50:49;7.90;;;2.72;;
31760;SDS011;18335;51.486;7.562;2023-02-28T04:53:16;9.52;;;3.05;;
31760;SDS011;18335;51.486;7.562;2023-02-28T04:55:43;12.23;;;3.65;;
31760;SDS011;18335;51.486;7.562;2023-02-28T04:58:11;9.27;;;3.85;;
31760;SDS011;18335;51.486;7.562;2023-02-28T05:00:38;14.57;;;4.38;;
31760;SDS011;18335;51.486;7.562;2023-02-28T05:03:05;11.15;;;3.67;;
31760;SDS011;18335;51.486;7.562;2023-02-28T05:05:32;12.20;;;3.78;;
31760;SDS011;18335;51.486;7.562;2023-02-28T05:07:59;11.68;;;3.90;;
31760;SDS011;18335;51.486;7.562;2023-02-28T05:10:26;12.48;;;4.18;;
31760;SDS011;18335;51.486;7.562;2023-02-28T05:12:52;11.57;;;4.97;;
31760;SDS011;18335;51.486;7.562;2023-02-28T05:15:20;13.88;;;4.18;;
31760;SDS011;18335;51.486;7.562;2023-02-28T05:17:48;9.55;;;3.85;;
31760;SDS011;18335;51.486;7.562;2023-02-28T05:20:14;16.38;;;4.63;;
31760;SDS011;18335;51.486;7.562;2023-02-28T05:22:41;10.48;;;4.15;;
31760;SDS011;18335;51.486;7.562;2023-02-28T05:25:09;12.85;;;3.30;;
31760;SDS011;18335;51.486;7.562;2023-02-28T05:27:38;15.23;;;5.28;;
31760;SDS011;18335;51.486;7.562;2023-02-28T05:30:06;12.75;;;4.18;;
31760;SDS011;18335;51.486;7.562;2023-02-28T05:32:37;17.42;;;4.75;;
31760;SDS011;18335;51.486;7.562;2023-02-28T05:35:04;11.52;;;4.35;;
31760;SDS011;18335;51.486;7.562;2023-02-28T05:37:31;12.23;;;3.10;;
31760;SDS011;18335;51.486;7.562;2023-02-28T05:39:58;10.55;;;4.15;;
31760;SDS011;18335;51.486;7.562;2023-02-28T05:42:24;11.50;;;4.05;;
31760;SDS011;18335;51.486;7.562;2023-02-28T05:44:51;10.75;;;4.18;;
31760;SDS011;18335;51.486;7.562;2023-02-28T05:47:18;8.95;;;3.22;;
31760;SDS011;18335;51.486;7.562;2023-02-28T05:49:46;11.30;;;3.72;;
31760;SDS011;18335;51.486;7.562;2023-02-28T05:52:12;9.43;;;3.17;;
31760;SDS011;18335;51.486;7.562;2023-02-28T05:54:39;10.32;;;3.90;;
31760;SDS011;18335;51.486;7.562;2023-02-28T05:57:06;11.93;;;3.20;;
31760;SDS011;18335;51.486;7.562;2023-02-28T05:59:33;8.20;;;3.58;;
31760;SDS011;18335;51.486;7.562;2023-02-28T06:02:00;9.30;;;2.75;;
31760;SDS011;18335;51.486;7.562;2023-02-28T06:04:26;10.07;;;3.53;;
31760;SDS011;18335;51.486;7.562;2023-02-28T06:06:55;10.40;;;4.22;;
31760;SDS011;18335;51.486;7.562;2023-02-28T06:09:23;7.97;;;3.53;;
31760;SDS011;18335;51.486;7.562;2023-02-28T06:11:50;9.13;;;2.88;;
31760;SDS011;18335;51.486;7.562;2023-02-28T06:14:17;7.90;;;3.28;;
31760;SDS011;18335;51.486;7.562;2023-02-28T06:16:45;7.85;;;3.45;;
31760;SDS011;18335;51.486;7.562;2023-02-28T06:19:12;8.13;;;3.00;;
31760;SDS011;18335;51.486;7.562;2023-02-28T06:21:40;7.78;;;3.45;;
31760;SDS011;18335;51.486;7.562;2023-02-28T06:24:08;8.60;;;3.17;;
31760;SDS011;18335;51.486;7.562;2023-02-28T06:26:35;9.45;;;3.28;;
31760;SDS011;18335;51.486;7.562;2023-02-28T06:29:02;8.38;;;3.67;;
31760;SDS011;18335;51.486;7.562;2023-02-28T06:31:29;12.13;;;4.07;;
31760;SDS011;18335;51.486;7.562;2023-02-28T06:33:55;9.80;;;4.15;;
31760;SDS011;18335;51.486;7.562;2023-02-28T06:36:22;15.07;;;5.25;;
31760;SDS011;18335;51.486;7.562;2023-02-28T06:38:49;14.50;;;5.25;;
31760;SDS011;18335;51.486;7.562;2023-02-28T06:41:22;12.18;;;5.15;;
31760;SDS011;18335;51.486;7.562;2023-02-28T06:43:49;14.85;;;5.43;;
31760;SDS011;18335;51.486;7.562;2023-02-28T06:46:16;11.60;;;5.03;;
31760;SDS011;18335;51.486;7.562;2023-02-28T06:48:43;17.65;;;5.65;;
31760;SDS011;18335;51.486;7.562;2023-02-28T06:51:12;14.88;;;5.25;;
31760;SDS011;18335;51.486;7.562;2023-02-28T06:53:41;13.70;;;5.57;;
31760;SDS011;18335;51.486;7.562;2023-02-28T06:56:09;14.48;;;5.72;;
31760;SDS011;18335;51.486;7.562;2023-02-28T06:58:39;13.38;;;5.03;;
31760;SDS011;18335;51.486;7.562;2023-02-28T07:01:06;18.27;;;6.05;;
31760;SDS011;18335;51.486;7.562;2023-02-28T07:03:34;14.88;;;5.78;;
31760;SDS011;18335;51.486;7.562;2023-02-28T07:06:02;14.07;;;5.63;;
31760;SDS011;18335;51.486;7.562;2023-02-28T07:08:29;16.23;;;6.10;;
31760;SDS011;18335;51.486;7.562;2023-02-28T07:10:57;15.52;;;5.50;;
31760;SDS011;18335;51.486;7.562;2023-02-28T07:13:24;11.02;;;5.07;;
31760;SDS011;18335;51.486;7.562;2023-02-28T07:15:56;12.13;;;4.65;;
31760;SDS011;18335;51.486;7.562;2023-02-28T07:18:24;11.95;;;4.80;;
31760;SDS011;18335;51.486;7.562;2023-02-28T07:20:51;11.57;;;4.45;;
31760;SDS011;18335;51.486;7.562;2023-02-28T07:23:18;12.57;;;5.28;;
31760;SDS011;18335;51.486;7.562;2023-02-28T07:25:45;14.52;;;4.72;;
31760;SDS011;18335;51.486;7.562;2023-02-28T07:28:12;14.05;;;4.97;;
31760;SDS011;18335;51.486;7.562;2023-02-28T07:30:40;11.00;;;4.25;;
31760;SDS011;18335;51.486;7.562;2023-02-28T07:33:08;10.95;;;4.20;;
31760;SDS011;18335;51.486;7.562;2023-02-28T07:35:35;10.98;;;4.60;;
31760;SDS011;18335;51.486;7.562;2023-02-28T07:38:02;13.35;;;5.53;;
31760;SDS011;18335;51.486;7.562;2023-02-28T07:40:30;13.50;;;5.43;;
31760;SDS011;18335;51.486;7.562;2023-02-28T07:42:57;16.23;;;7.47;;
31760;SDS011;18335;51.486;7.562;2023-02-28T07:45:25;12.48;;;5.75;;
31760;SDS011;18335;51.486;7.562;2023-02-28T07:47:52;17.13;;;8.43;;
31760;SDS011;18335;51.486;7.562;2023-02-28T07:50:20;12.43;;;6.47;;
31760;SDS011;18335;51.486;7.562;2023-02-28T07:52:47;9.73;;;5.22;;
31760;SDS011;18335;51.486;7.562;2023-02-28T07:55:14;11.07;;;5.18;;
31760;SDS011;18335;51.486;7.562;2023-02-28T07:57:42;11.48;;;6.00;;
31760;SDS011;18335;51.486;7.562;2023-02-28T08:00:09;15.63;;;6.75;;
31760;SDS011;18335;51.486;7.562;2023-02-28T08:02:39;11.82;;;5.70;;
31760;SDS011;18335;51.486;7.562;2023-02-28T08:05:06;13.70;;;5.90;;
31760;SDS011;18335;51.486;7.562;2023-02-28T08:07:35;10.68;;;5.28;;
31760;SDS011;18335;51.486;7.562;2023-02-28T08:10:02;13.20;;;5.78;;
31760;SDS011;18335;51.486;7.562;2023-02-28T08:12:31;11.18;;;5.20;;
31760;SDS011;18335;51.486;7.562;2023-02-28T08:14:57;16.50;;;5.38;;
31760;SDS011;18335;51.486;7.562;2023-02-28T08:17:24;13.88;;;5.13;;
31760;SDS011;18335;51.486;7.562;2023-02-28T08:19:51;13.98;;;5.40;;
31760;SDS011;18335;51.486;7.562;2023-02-28T08:22:18;21.77;;;7.32;;
31760;SDS011;18335;51.486;7.562;2023-02-28T08:24:46;10.98;;;5.93;;
31760;SDS011;18335;51.486;7.562;2023-02-28T08:27:12;17.38;;;7.10;;
31760;SDS011;18335;51.486;7.562;2023-02-28T08:29:39;11.48;;;4.93;;
31760;SDS011;18335;51.486;7.562;2023-02-28T08:32:06;12.68;;;4.78;;
31760;SDS011;18335;51.486;7.562;2023-02-28T08:34:33;19.15;;;4.60;;
31760;SDS011;18335;51.486;7.562;2023-02-28T08:37:00;13.40;;;4.57;;
31760;SDS011;18335;51.486;7.562;2023-02-28T08:39:27;14.68;;;4.47;;
31760;SDS011;18335;51.486;7.562;2023-02-28T08:41:55;12.23;;;4.70;;
31760;SDS011;18335;51.486;7.562;2023-02-28T08:44:21;15.63;;;4.57;;
31760;SDS011;18335;51.486;7.562;2023-02-28T08:46:48;10.02;;;4.22;;
31760;SDS011;18335;51.486;7.562;2023-02-28T08:49:15;10.75;;;3.53;;
31760;SDS011;18335;51.486;7.562;2023-02-28T08:51:41;9.55;;;3.65;;
31760;SDS011;18335;51.486;7.562;2023-02-28T08:54:08;16.17;;;4.38;;
31760;SDS011;18335;51.486;7.562;2023-02-28T08:56:37;9.32;;;3.97;;
31760;SDS011;18335;51.486;7.562;2023-02-28T08:59:06;9.15;;;3.53;;
31760;SDS011;18335;51.486;7.562;2023-02-28T09:01:32;6.15;;;2.60;;
31760;SDS011;18335;51.486;7.562;2023-02-28T09:03:59;8.32;;;3.00;;
31760;SDS011;18335;51.486;7.562;2023-02-28T09:06:28;8.73;;;2.60;;
31760;SDS011;18335;51.486;7.562;2023-02-28T09:08:55;13.02;;;3.22;;
31760;SDS011;18335;51.486;7.562;2023-02-28T09:11:24;7.60;;;3.20;;
31760;SDS011;18335;51.486;7.562;2023-02-28T09:13:51;9.10;;;3.33;;
31760;SDS011;18335;51.486;7.562;2023-02-28T09:16:19;8.23;;;2.83;;
31760;SDS011;18335;51.486;7.562;2023-02-28T09:18:46;13.98;;;2.88;;
31760;SDS011;18335;51.486;7.562;2023-02-28T09:21:13;6.07;;;2.63;;
31760;SDS011;18335;51.486;7.562;2023-02-28T09:23:41;8.73;;;3.10;;
31760;SDS011;18335;51.486;7.562;2023-02-28T09:26:12;5.55;;;2.15;;
31760;SDS011;18335;51.486;7.562;2023-02-28T09:28:40;6.68;;;2.60;;
31760;SDS011;18335;51.486;7.562;2023-02-28T09:31:10;9.63;;;3.08;;
31760;SDS011;18335;51.486;7.562;2023-02-28T09:33:40;5.82;;;2.45;;
31760;SDS011;18335;51.486;7.562;2023-02-28T09:36:07;5.00;;;2.20;;
31760;SDS011;18335;51.486;7.562;2023-02-28T09:38:34;7.70;;;2.47;;
31760;SDS011;18335;51.486;7.562;2023-02-28T09:41:03;5.88;;;2.53;;
31760;SDS011;18335;51.486;7.562;2023-02-28T09:43:38;4.68;;;2.25;;
31760;SDS011;18335;51.486;7.562;2023-02-28T09:46:12;6.55;;;2.33;;
31760;SDS011;18335;51.486;7.562;2023-02-28T09:48:50;8.00;;;2.72;;
31760;SDS011;18335;51.486;7.562;2023-02-28T09:51:24;8.73;;;3.22;;
31760;SDS011;18335;51.486;7.562;2023-02-28T09:53:56;6.82;;;2.70;;
31760;SDS011;18335;51.486;7.562;2023-02-28T09:56:24;8.90;;;2.75;;
31760;SDS011;18335;51.486;7.562;2023-02-28T09:58:54;10.15;;;3.00;;
31760;SDS011;18335;51.486;7.562;2023-02-28T10:01:27;10.63;;;4.03;;
31760;SDS011;18335;51.486;7.562;2023-02-28T10:04:03;8.88;;;2.88;;
31760;SDS011;18335;51.486;7.562;2023-02-28T10:06:38;9.93;;;2.67;;
31760;SDS011;18335;51.486;7.562;2023-02-28T10:09:11;7.30;;;3.63;;
31760;SDS011;18335;51.486;7.562;2023-02-28T10:11:42;9.57;;;4.03;;
31760;SDS011;18335;51.486;7.562;2023-02-28T10:14:12;10.10;;;2.75;;
31760;SDS011;18335;51.486;7.562;2023-02-28T10:16:42;8.23;;;2.88;;
31760;SDS011;18335;51.486;7.562;2023-02-28T10:19:19;7.57;;;2.75;;
31760;SDS011;18335;51.486;7.562;2023-02-28T10:21:49;7.97;;;2.80;;
31760;SDS011;18335;51.486;7.562;2023-02-28T10:24:23;9.05;;;3.20;;
31760;SDS011;18335;51.486;7.562;2023-02-28T10:26:56;6.80;;;2.67;;
31760;SDS011;18335;51.486;7.562;2023-02-28T10:29:26;6.75;;;2.50;;
31760;SDS011;18335;51.486;7.562;2023-02-28T10:31:55;9.23;;;2.58;;
31760;SDS011;18335;51.486;7.562;2023-02-28T10:34:23;6.93;;;2.60;;
31760;SDS011;18335;51.486;7.562;2023-02-28T10:36:50;6.22;;;2.42;;
31760;SDS011;18335;51.486;7.562;2023-02-28T10:39:34;7.35;;;2.72;;
31760;SDS011;18335;51.486;7.562;2023-02-28T10:42:02;5.40;;;2.20;;
31760;SDS011;18335;51.486;7.562;2023-02-28T10:44:29;8.63;;;2.08;;
31760;SDS011;18335;51.486;7.562;2023-02-28T10:46:56;7.28;;;2.58;;
31760;SDS011;18335;51.486;7.562;2023-02-28T10:49:26;7.13;;;2.33;;
31760;SDS011;18335;51.486;7.562;2023-02-28T10:51:54;5.30;;;1.85;;
31760;SDS011;18335;51.486;7.562;2023-02-28T10:54:24;7.25;;;2.28;;
31760;SDS011;18335;51.486;7.562;2023-02-28T10:57:06;5.70;;;2.03;;
31760;SDS011;18335;51.486;7.562;2023-02-28T10:59:40;6.43;;;2.10;;
31760;SDS011;18335;51.486;7.562;2023-02-28T11:04:57;4.55;;;2.10;;
31760;SDS011;18335;51.486;7.562;2023-02-28T11:07:25;4.88;;;2.20;;
31760;SDS011;18335;51.486;7.562;2023-02-28T11:09:53;5.40;;;1.95;;
31760;SDS011;18335;51.486;7.562;2023-02-28T11:12:22;6.25;;;2.80;;
31760;SDS011;18335;51.486;7.562;2023-02-28T11:14:52;4.07;;;2.00;;
31760;SDS011;18335;51.486;7.562;2023-02-28T11:17:21;7.53;;;2.60;;
31760;SDS011;18335;51.486;7.562;2023-02-28T11:19:51;4.60;;;2.03;;
31760;SDS011;18335;51.486;7.562;2023-02-28T11:22:24;7.63;;;2.50;;
31760;SDS011;18335;51.486;7.562;2023-02-28T11:24:54;7.28;;;2.47;;
31760;SDS011;18335;51.486;7.562;2023-02-28T11:27:40;5.82;;;2.15;;
31760;SDS011;18335;51.486;7.562;2023-02-28T11:30:25;7.53;;;2.58;;
31760;SDS011;18335;51.486;7.562;2023-02-28T11:35:27;7.55;;;2.15;;
31760;SDS011;18335;51.486;7.562;2023-02-28T11:37:58;5.90;;;2.20;;
31760;SDS011;18335;51.486;7.562;2023-02-28T11:40:29;5.82;;;2.53;;
31760;SDS011;18335;51.486;7.562;2023-02-28T11:43:07;6.13;;;2.15;;
31760;SDS011;18335;51.486;7.562;2023-02-28T11:45:44;5.85;;;2.17;;
31760;SDS011;18335;51.486;7.562;2023-02-28T11:48:22;6.63;;;2.03;;
31760;SDS011;18335;51.486;7.562;2023-02-28T11:51:05;4.88;;;2.20;;
31760;SDS011;18335;51.486;7.562;2023-02-28T11:53:48;4.45;;;2.08;;
31760;SDS011;18335;51.486;7.562;2023-02-28T11:56:25;6.15;;;2.33;;
31760;SDS011;18335;51.486;7.562;2023-02-28T12:02:06;10.55;;;2.33;;
31760;SDS011;18335;51.486;7.562;2023-02-28T12:04:49;8.05;;;2.85;;
31760;SDS011;18335;51.486;7.562;2023-02-28T12:07:26;6.35;;;2.38;;
31760;SDS011;18335;51.486;7.562;2023-02-28T12:10:04;7.78;;;3.75;;
31760;SDS011;18335;51.486;7.562;2023-02-28T12:12:42;7.97;;;2.83;;
31760;SDS011;18335;51.486;7.562;2023-02-28T12:15:28;7.00;;;3.28;;
31760;SDS011;18335;51.486;7.562;2023-02-28T12:18:13;5.63;;;2.47;;
31760;SDS011;18335;51.486;7.562;2023-02-28T12:20:49;7.00;;;2.70;;
31760;SDS011;18335;51.486;7.562;2023-02-28T12:23:26;8.75;;;3.30;;
31760;SDS011;18335;51.486;7.562;2023-02-28T12:26:15;8.68;;;2.65;;
31760;SDS011;18335;51.486;7.562;2023-02-28T12:28:49;7.43;;;2.85;;
31760;SDS011;18335;51.486;7.562;2023-02-28T12:31:20;6.28;;;2.97;;
31760;SDS011;18335;51.486;7.562;2023-02-28T12:33:51;6.35;;;2.80;;
31760;SDS011;18335;51.486;7.562;2023-02-28T12:36:20;13.52;;;3.33;;
31760;SDS011;18335;51.486;7.562;2023-02-28T12:38:50;5.97;;;3.00;;
31760;SDS011;18335;51.486;7.562;2023-02-28T12:41:22;6.35;;;2.97;;
31760;SDS011;18335;51.486;7.562;2023-02-28T12:43:57;5.38;;;3.08;;
31760;SDS011;18335;51.486;7.562;2023-02-28T12:46:29;4.63;;;2.53;;
31760;SDS011;18335;51.486;7.562;2023-02-28T12:49:00;10.65;;;4.07;;
31760;SDS011;18335;51.486;7.562;2023-02-28T12:51:32;7.93;;;3.03;;
31760;SDS011;18335;51.486;7.562;2023-02-28T12:54:04;6.97;;;2.60;;
31760;SDS011;18335;51.486;7.562;2023-02-28T12:56:43;7.38;;;2.70;;
31760;SDS011;18335;51.486;7.562;2023-02-28T12:59:19;5.57;;;2.85;;
31760;SDS011;18335;51.486;7.562;2023-02-28T13:02:00;6.50;;;2.72;;
31760;SDS011;18335;51.486;7.562;2023-02-28T13:04:40;15.32;;;3.30;;
31760;SDS011;18335;51.486;7.562;2023-02-28T13:10:07;6.18;;;2.78;;
31760;SDS011;18335;51.486;7.562;2023-02-28T13:12:36;6.25;;;2.60;;
31760;SDS011;18335;51.486;7.562;2023-02-28T13:15:16;8.38;;;3.00;;
31760;SDS011;18335;51.486;7.562;2023-02-28T13:17:50;11.68;;;4.15;;
31760;SDS011;18335;51.486;7.562;2023-02-28T13:20:18;7.00;;;2.33;;
31760;SDS011;18335;51.486;7.562;2023-02-28T13:22:47;8.80;;;2.67;;
31760;SDS011;18335;51.486;7.562;2023-02-28T13:34:39;7.78;;;3.33;;
31760;SDS011;18335;51.486;7.562;2023-02-28T13:40:07;6.45;;;3.25;;
31760;SDS011;18335;51.486;7.562;2023-02-28T13:42:53;6.38;;;3.03;;
31760;SDS011;18335;51.486;7.562;2023-02-28T13:45:21;7.20;;;2.50;;
31760;SDS011;18335;51.486;7.562;2023-02-28T13:47:54;8.32;;;3.40;;
31760;SDS011;18335;51.486;7.562;2023-02-28T13:50:28;8.48;;;3.35;;
31760;SDS011;18335;51.486;7.562;2023-02-28T13:56:21;6.15;;;2.90;;
31760;SDS011;18335;51.486;7.562;2023-02-28T13:58:54;8.40;;;3.28;;
31760;SDS011;18335;51.486;7.562;2023-02-28T14:01:31;6.70;;;3.05;;
31760;SDS011;18335;51.486;7.562;2023-02-28T14:07:18;7.90;;;3.28;;
31760;SDS011;18335;51.486;7.562;2023-02-28T14:09:49;8.60;;;3.25;;
31760;SDS011;18335;51.486;7.562;2023-02-28T14:15:33;8.95;;;3.70;;
31760;SDS011;18335;51.486;7.562;2023-02-28T14:18:10;6.47;;;3.15;;
31760;SDS011;18335;51.486;7.562;2023-02-28T14:20:42;9.60;;;3.50;;
31760;SDS011;18335;51.486;7.562;2023-02-28T14:23:14;12.00;;;4.57;;
31760;SDS011;18335;51.486;7.562;2023-02-28T14:25:52;9.85;;;4.00;;
31760;SDS011;18335;51.486;7.562;2023-02-28T14:28:41;7.53;;;3.45;;
31760;SDS011;18335;51.486;7.562;2023-02-28T14:31:17;6.05;;;2.83;;
31760;SDS011;18335;51.486;7.562;2023-02-28T14:36:59;8.65;;;3.63;;
31760;SDS011;18335;51.486;7.562;2023-02-28T14:39:29;6.95;;;3.40;;
31760;SDS011;18335;51.486;7.562;2023-02-28T14:41:58;6.80;;;3.20;;
31760;SDS011;18335;51.486;7.562;2023-02-28T14:44:29;10.50;;;3.65;;
31760;SDS011;18335;51.486;7.562;2023-02-28T14:46:57;6.40;;;3.25;;
31760;SDS011;18335;51.486;7.562;2023-02-28T14:49:29;7.47;;;4.05;;
31760;SDS011;18335;51.486;7.562;2023-02-28T14:52:02;6.97;;;3.28;;
31760;SDS011;18335;51.486;7.562;2023-02-28T14:54:36;6.47;;;3.72;;
31760;SDS011;18335;51.486;7.562;2023-02-28T14:57:04;9.15;;;3.75;;
31760;SDS011;18335;51.486;7.562;2023-02-28T14:59:32;9.65;;;3.83;;
31760;SDS011;18335;51.486;7.562;2023-02-28T15:02:14;9.43;;;3.40;;
31760;SDS011;18335;51.486;7.562;2023-02-28T15:04:52;6.45;;;3.20;;
31760;SDS011;18335;51.486;7.562;2023-02-28T15:07:21;8.27;;;4.25;;
31760;SDS011;18335;51.486;7.562;2023-02-28T15:12:49;8.65;;;3.90;;
31760;SDS011;18335;51.486;7.562;2023-02-28T15:15:21;7.72;;;3.72;;
31760;SDS011;18335;51.486;7.562;2023-02-28T15:17:52;8.32;;;3.67;;
31760;SDS011;18335;51.486;7.562;2023-02-28T15:20:22;5.45;;;3.05;;
31760;SDS011;18335;51.486;7.562;2023-02-28T15:22:50;6.90;;;3.00;;
31760;SDS011;18335;51.486;7.562;2023-02-28T15:25:23;9.52;;;4.00;;
31760;SDS011;18335;51.486;7.562;2023-02-28T15:27:51;15.25;;;4.40;;
31760;SDS011;18335;51.486;7.562;2023-02-28T15:30:21;13.45;;;4.95;;
31760;SDS011;18335;51.486;7.562;2023-02-28T15:33:05;6.45;;;3.30;;
31760;SDS011;18335;51.486;7.562;2023-02-28T15:35:36;10.45;;;3.55;;
31760;SDS011;18335;51.486;7.562;2023-02-28T15:38:05;11.02;;;3.78;;
31760;SDS011;18335;51.486;7.562;2023-02-28T15:40:43;6.47;;;3.00;;
31760;SDS011;18335;51.486;7.562;2023-02-28T15:43:23;7.18;;;2.92;;
31760;SDS011;18335;51.486;7.562;2023-02-28T15:45:51;10.32;;;4.03;;
31760;SDS011;18335;51.486;7.562;2023-02-28T15:48:21;7.75;;;3.17;;
31760;SDS011;18335;51.486;7.562;2023-02-28T15:50:51;7.97;;;3.90;;